Terminal Aerodrome Forecast
Issued by NWS

Home | Current Version | Previous Version | Text Only | Print | Product List | Glossary On
Versions: 1 2 3 4 5 6 7 8 9 10 11 12 13 14
012
FTUS43 KSGF 121726
TAFBBG
TAF
KBBG 121726Z 1218/1318 31008KT P6SM SKC
     FM130300 25005KT P6SM SKC
     FM130900 21005KT P6SM SKC WS020/24040KT
     FM131400 23012G20KT P6SM SKC=

USA.gov is the U.S. government's official web portal to all federal, state and local government web resources and services.